London Express — DPLE — position and weather

sailwx.info

Track history (hours):
 
Tides and Currents Weather Stations Pressure Air Temp Water Temp Dewpoint Dewpoint Depression Visibility Wind Speed Wind Dir Waves Ship Positions

London Express

Last reported at 2015-Apr-01 18:00 UTC. Time now 2015-Apr-02 04:31 UTC.
Position N 30°48' W 079°30'.

Length 294 m; beam 32.3 m; draft 13.6 m.

Type: Ship. MMSI: 211262630.

Wind from 320 at 16 knots

Waves 1.0 meters (3 feet), 7 second period

Barometer 1017.6 mb
Air temperature 23.3 ° C
Visibility: greater than 10.8 NM
Dewpoint 17.7 ° C
Water temperature 26.0 ° C

Date/timePositionNaut miles runAvg speedWind from/ knotsBaromVisibWave heightAir tempDewpointWater temp
2015-Apr-01 18:00N 30°48' W 079°30'19816.5 320 / 161017.610.8 1.023.317.726.0
2015-Apr-01 06:00N 27°30' W 079°24'6717.9 210 / 211019.310.8 22.817.026.0
2015-Apr-01 02:14N 26°23' W 079°27'1420.0
2015-Apr-01 01:34N 26°09' W 079°29'2020.3
2015-Apr-01 00:34N 25°49' W 079°33'11818.0
2015-Mar-31 18:00N 24°06' W 080°36'61215.0 070 / 201020.510.8 1.528.113.227.0
2015-Mar-30 01:11N 29°56' W 089°59'6 8.4
2015-Mar-30 00:25N 29°55' W 090°07'0 0.1
2015-Mar-29 22:10N 29°55' W 090°07'0 0.0
2015-Mar-29 18:23N 29°55' W 090°07'0 0.0
2015-Mar-29 12:32N 29°55' W 090°07'3 0.9
2015-Mar-29 09:28N 29°56' W 090°04'250 7.8
2015-Mar-28 01:33N 29°25' W 094°50'1211.9
2015-Mar-28 00:33N 29°35' W 094°56'7 6.6
2015-Mar-27 23:33N 29°41' W 094°60'0 0.0
2015-Mar-27 22:19N 29°41' W 094°60'0 0.0
2015-Mar-27 21:28N 29°41' W 094°60'0 0.0
2015-Mar-27 20:33N 29°41' W 094°60'0 0.0
2015-Mar-27 19:33N 29°41' W 094°60'0 0.0
2015-Mar-27 18:23N 29°41' W 094°60'0 0.0
2015-Mar-27 17:32N 29°41' W 094°60'0 0.0
2015-Mar-27 16:29N 29°41' W 094°60'0 0.0
2015-Mar-27 15:31N 29°41' W 094°60'0 0.0
2015-Mar-27 14:31N 29°41' W 094°60'0 0.0
2015-Mar-27 13:33N 29°41' W 094°60'0 0.0
2015-Mar-27 12:27N 29°41' W 094°60'0 0.0
2015-Mar-27 11:32N 29°41' W 094°60'0 0.0
2015-Mar-27 10:32N 29°41' W 094°60'0 0.0
2015-Mar-27 09:32N 29°41' W 094°60'0 0.0
2015-Mar-27 08:31N 29°41' W 094°60'0 0.0
2015-Mar-27 07:28N 29°41' W 094°60'0 0.0
2015-Mar-27 06:21N 29°41' W 094°60'0 0.0
2015-Mar-27 05:30N 29°41' W 094°60'0 0.0
2015-Mar-27 04:33N 29°41' W 094°60'0 0.0
2015-Mar-27 03:32N 29°41' W 094°60'0 0.0
2015-Mar-27 02:32N 29°41' W 094°60'0 0.0
2015-Mar-27 01:28N 29°41' W 094°60'0 0.0
2015-Mar-27 00:28N 29°41' W 094°60'0 0.0
2015-Mar-26 23:33N 29°41' W 094°60'0 0.0
2015-Mar-26 22:27N 29°41' W 094°60'0 0.0
2015-Mar-26 21:26N 29°41' W 094°60'0 0.0
2015-Mar-26 20:29N 29°41' W 094°60'0 0.0
2015-Mar-26 19:29N 29°41' W 094°60'0 0.0
2015-Mar-26 18:31N 29°41' W 094°60'0 0.0
2015-Mar-26 17:28N 29°41' W 094°60'0 0.0
2015-Mar-26 16:33N 29°41' W 094°60'0 0.0
2015-Mar-26 15:33N 29°41' W 094°60'0 0.0
2015-Mar-26 14:32N 29°41' W 094°60'0 0.0
2015-Mar-26 13:29N 29°41' W 094°60'0 0.0
2015-Mar-26 12:25N 29°41' W 094°60'0 0.0
2015-Mar-26 11:31N 29°41' W 094°60'0 0.0
2015-Mar-26 10:31N 29°41' W 094°60'0 0.0
2015-Mar-26 09:33N 29°41' W 094°60'0 0.0
2015-Mar-26 08:33N 29°41' W 094°60'0 0.0
2015-Mar-26 07:29N 29°41' W 094°60'0 0.0
2015-Mar-26 06:29N 29°41' W 094°60'0 0.0
2015-Mar-26 05:32N 29°41' W 094°60'0 0.0
2015-Mar-26 04:28N 29°41' W 094°60'0 0.0
2015-Mar-26 03:31N 29°41' W 094°60'0 0.0
2015-Mar-26 02:30N 29°41' W 094°60'0 0.0
2015-Mar-26 01:27N 29°41' W 094°60'0 0.0
2015-Mar-26 00:26N 29°41' W 094°60'0 0.0
2015-Mar-25 23:32N 29°41' W 094°60'0 0.0
2015-Mar-25 22:25N 29°41' W 094°60'0 0.0
2015-Mar-25 21:31N 29°41' W 094°60'0 0.0
2015-Mar-25 20:31N 29°41' W 094°60'0 0.0
2015-Mar-25 19:27N 29°41' W 094°60'0 0.0
2015-Mar-25 18:33N 29°41' W 094°60'0 0.0
2015-Mar-25 17:32N 29°41' W 094°60'0 0.0
2015-Mar-25 16:33N 29°41' W 094°60'1 0.9
2015-Mar-25 15:33N 29°41' W 094°59'1010.0
2015-Mar-25 14:33N 29°32' W 094°54'1312.7
2015-Mar-25 13:33N 29°21' W 094°47'  
Track history (hours):
 
Tides and Currents Weather Stations Pressure Air Temp Water Temp Dewpoint Dewpoint Depression Visibility Wind Speed Wind Dir Waves Ship Positions

London Express

Last reported at 2015-Apr-01 18:00 UTC. Time now 2015-Apr-02 04:31 UTC.
Position N 30°48' W 079°30'.

Length 294 m; beam 32.3 m; draft 13.6 m.

Type: Ship. MMSI: 211262630.

Wind from 320 at 16 knots

Waves 1.0 meters (3 feet), 7 second period

Barometer 1017.6 mb
Air temperature 23.3 ° C
Visibility: greater than 10.8 NM
Dewpoint 17.7 ° C
Water temperature 26.0 ° C

Date/timePositionNaut miles runAvg speedWind from/ knotsBaromVisibWave heightAir tempDewpointWater temp
2015-Apr-01 18:00N 30°48' W 079°30'19816.5 320 / 161017.610.8 1.023.317.726.0
2015-Apr-01 06:00N 27°30' W 079°24'6717.9 210 / 211019.310.8 22.817.026.0
2015-Apr-01 02:14N 26°23' W 079°27'1420.0
2015-Apr-01 01:34N 26°09' W 079°29'2020.3
2015-Apr-01 00:34N 25°49' W 079°33'11818.0
2015-Mar-31 18:00N 24°06' W 080°36'61215.0 070 / 201020.510.8 1.528.113.227.0
2015-Mar-30 01:11N 29°56' W 089°59'6 8.4
2015-Mar-30 00:25N 29°55' W 090°07'0 0.1
2015-Mar-29 22:10N 29°55' W 090°07'0 0.0
2015-Mar-29 18:23N 29°55' W 090°07'0 0.0
2015-Mar-29 12:32N 29°55' W 090°07'3 0.9
2015-Mar-29 09:28N 29°56' W 090°04'250 7.8
2015-Mar-28 01:33N 29°25' W 094°50'1211.9
2015-Mar-28 00:33N 29°35' W 094°56'7 6.6
2015-Mar-27 23:33N 29°41' W 094°60'0 0.0
2015-Mar-27 22:19N 29°41' W 094°60'0 0.0
2015-Mar-27 21:28N 29°41' W 094°60'0 0.0
2015-Mar-27 20:33N 29°41' W 094°60'0 0.0
2015-Mar-27 19:33N 29°41' W 094°60'0 0.0
2015-Mar-27 18:23N 29°41' W 094°60'0 0.0
2015-Mar-27 17:32N 29°41' W 094°60'0 0.0
2015-Mar-27 16:29N 29°41' W 094°60'0 0.0
2015-Mar-27 15:31N 29°41' W 094°60'0 0.0
2015-Mar-27 14:31N 29°41' W 094°60'0 0.0
2015-Mar-27 13:33N 29°41' W 094°60'0 0.0
2015-Mar-27 12:27N 29°41' W 094°60'0 0.0
2015-Mar-27 11:32N 29°41' W 094°60'0 0.0
2015-Mar-27 10:32N 29°41' W 094°60'0 0.0
2015-Mar-27 09:32N 29°41' W 094°60'0 0.0
2015-Mar-27 08:31N 29°41' W 094°60'0 0.0
2015-Mar-27 07:28N 29°41' W 094°60'0 0.0
2015-Mar-27 06:21N 29°41' W 094°60'0 0.0
2015-Mar-27 05:30N 29°41' W 094°60'0 0.0
2015-Mar-27 04:33N 29°41' W 094°60'0 0.0
2015-Mar-27 03:32N 29°41' W 094°60'0 0.0
2015-Mar-27 02:32N 29°41' W 094°60'0 0.0
2015-Mar-27 01:28N 29°41' W 094°60'0 0.0
2015-Mar-27 00:28N 29°41' W 094°60'0 0.0
2015-Mar-26 23:33N 29°41' W 094°60'0 0.0
2015-Mar-26 22:27N 29°41' W 094°60'0 0.0
2015-Mar-26 21:26N 29°41' W 094°60'0 0.0
2015-Mar-26 20:29N 29°41' W 094°60'0 0.0
2015-Mar-26 19:29N 29°41' W 094°60'0 0.0
2015-Mar-26 18:31N 29°41' W 094°60'0 0.0
2015-Mar-26 17:28N 29°41' W 094°60'0 0.0
2015-Mar-26 16:33N 29°41' W 094°60'0 0.0
2015-Mar-26 15:33N 29°41' W 094°60'0 0.0
2015-Mar-26 14:32N 29°41' W 094°60'0 0.0
2015-Mar-26 13:29N 29°41' W 094°60'0 0.0
2015-Mar-26 12:25N 29°41' W 094°60'0 0.0
2015-Mar-26 11:31N 29°41' W 094°60'0 0.0
2015-Mar-26 10:31N 29°41' W 094°60'0 0.0
2015-Mar-26 09:33N 29°41' W 094°60'0 0.0
2015-Mar-26 08:33N 29°41' W 094°60'0 0.0
2015-Mar-26 07:29N 29°41' W 094°60'0 0.0
2015-Mar-26 06:29N 29°41' W 094°60'0 0.0
2015-Mar-26 05:32N 29°41' W 094°60'0 0.0
2015-Mar-26 04:28N 29°41' W 094°60'0 0.0
2015-Mar-26 03:31N 29°41' W 094°60'0 0.0
2015-Mar-26 02:30N 29°41' W 094°60'0 0.0
2015-Mar-26 01:27N 29°41' W 094°60'0 0.0
2015-Mar-26 00:26N 29°41' W 094°60'0 0.0
2015-Mar-25 23:32N 29°41' W 094°60'0 0.0
2015-Mar-25 22:25N 29°41' W 094°60'0 0.0
2015-Mar-25 21:31N 29°41' W 094°60'0 0.0
2015-Mar-25 20:31N 29°41' W 094°60'0 0.0
2015-Mar-25 19:27N 29°41' W 094°60'0 0.0
2015-Mar-25 18:33N 29°41' W 094°60'0 0.0
2015-Mar-25 17:32N 29°41' W 094°60'0 0.0
2015-Mar-25 16:33N 29°41' W 094°60'1 0.9
2015-Mar-25 15:33N 29°41' W 094°59'1010.0
2015-Mar-25 14:33N 29°32' W 094°54'1312.7
2015-Mar-25 13:33N 29°21' W 094°47'  

Dump ship's entire track history